sensor_id;sensor_type;location;lat;lon;timestamp;pressure;altitude;pressure_sealevel;temperature;humidity
62980;BME280;49075;53.988;27.678;2023-08-31T00:00:46;977.4;;;15.8;89
62980;BME280;49075;53.988;27.678;2023-08-31T00:05:38;977.3;;;15.8;88.3
62980;BME280;49075;53.988;27.678;2023-08-31T00:11:10;977.2;;;15.8;88.4
62980;BME280;49075;53.988;27.678;2023-08-31T00:15:46;977.3;;;15.8;88.4
62980;BME280;49075;53.988;27.678;2023-08-31T00:20:48;977.2;;;15.7;88.9
62980;BME280;49075;53.988;27.678;2023-08-31T00:25:32;977.3;;;15.6;89.2
62980;BME280;49075;53.988;27.678;2023-08-31T00:30:42;977.3;;;15.7;89
62980;BME280;49075;53.988;27.678;2023-08-31T00:35:42;977.4;;;15.6;89.5
62980;BME280;49075;53.988;27.678;2023-08-31T00:40:38;977.3;;;15.6;89.3
62980;BME280;49075;53.988;27.678;2023-08-31T00:46:06;977.4;;;15.5;89.8
62980;BME280;49075;53.988;27.678;2023-08-31T00:50:46;977.4;;;15.6;88.8
62980;BME280;49075;53.988;27.678;2023-08-31T00:55:46;977.4;;;15.6;89
62980;BME280;49075;53.988;27.678;2023-08-31T01:00:42;977.3;;;15.5;89.3
62980;BME280;49075;53.988;27.678;2023-08-31T01:05:33;977.4;;;15.5;89.3
62980;BME280;49075;53.988;27.678;2023-08-31T01:10:34;977.3;;;15.5;89.2
62980;BME280;49075;53.988;27.678;2023-08-31T01:15:32;977.4;;;15.4;89.7
62980;BME280;49075;53.988;27.678;2023-08-31T01:21:05;977.4;;;15.4;89.2
62980;BME280;49075;53.988;27.678;2023-08-31T01:25:32;977.4;;;15.5;89
62980;BME280;49075;53.988;27.678;2023-08-31T01:30:32;977.5;;;15.4;89.4
62980;BME280;49075;53.988;27.678;2023-08-31T01:35:39;977.4;;;15.4;89.7
62980;BME280;49075;53.988;27.678;2023-08-31T01:40:33;977.4;;;15.3;89.8
62980;BME280;49075;53.988;27.678;2023-08-31T01:45:48;977.4;;;15.4;89.6
62980;BME280;49075;53.988;27.678;2023-08-31T01:51:00;977.3;;;15.2;90.5
62980;BME280;49075;53.988;27.678;2023-08-31T01:55:42;977.4;;;15.3;89.7
62980;BME280;49075;53.988;27.678;2023-08-31T02:01:04;977.5;;;15.2;90.1
62980;BME280;49075;53.988;27.678;2023-08-31T02:05:32;977.6;;;15.3;89.2
62980;BME280;49075;53.988;27.678;2023-08-31T02:10:54;977.6;;;15.3;89.7
62980;BME280;49075;53.988;27.678;2023-08-31T02:15:52;977.5;;;15.3;89.1
62980;BME280;49075;53.988;27.678;2023-08-31T02:20:32;977.5;;;15.4;88.8
62980;BME280;49075;53.988;27.678;2023-08-31T02:25:52;977.5;;;15.4;89
62980;BME280;49075;53.988;27.678;2023-08-31T02:30:32;977.5;;;15.4;88.9
62980;BME280;49075;53.988;27.678;2023-08-31T02:36:16;977.5;;;15.3;89.1
62980;BME280;49075;53.988;27.678;2023-08-31T02:40:48;977.6;;;15.3;89.1
62980;BME280;49075;53.988;27.678;2023-08-31T02:45:58;977.6;;;15.4;88.8
62980;BME280;49075;53.988;27.678;2023-08-31T02:50:33;977.6;;;15.3;89.2
62980;BME280;49075;53.988;27.678;2023-08-31T02:55:38;977.7;;;15.3;89.2
62980;BME280;49075;53.988;27.678;2023-08-31T03:00:42;977.8;;;15.3;88.9
62980;BME280;49075;53.988;27.678;2023-08-31T03:05:54;977.8;;;15.4;88.8
62980;BME280;49075;53.988;27.678;2023-08-31T03:10:38;977.8;;;15.5;88.1
62980;BME280;49075;53.988;27.678;2023-08-31T03:15:32;977.8;;;15.5;88.1
62980;BME280;49075;53.988;27.678;2023-08-31T03:21:04;977.8;;;15.5;87.7
62980;BME280;49075;53.988;27.678;2023-08-31T03:25:46;977.8;;;15.6;87.5
62980;BME280;49075;53.988;27.678;2023-08-31T03:30:44;977.8;;;15.6;87.3
62980;BME280;49075;53.988;27.678;2023-08-31T03:35:32;977.8;;;15.7;87
62980;BME280;49075;53.988;27.678;2023-08-31T03:40:32;977.8;;;15.8;86.6
62980;BME280;49075;53.988;27.678;2023-08-31T03:45:48;977.9;;;15.7;87
62980;BME280;49075;53.988;27.678;2023-08-31T03:50:56;977.9;;;15.7;86.8
62980;BME280;49075;53.988;27.678;2023-08-31T03:55:52;978;;;15.8;86.7
62980;BME280;49075;53.988;27.678;2023-08-31T04:00:32;978;;;15.8;86.5
62980;BME280;49075;53.988;27.678;2023-08-31T04:05:38;978;;;15.9;86.2
62980;BME280;49075;53.988;27.678;2023-08-31T04:10:56;978;;;15.9;86.3
62980;BME280;49075;53.988;27.678;2023-08-31T04:15:32;978;;;15.7;86.7
62980;BME280;49075;53.988;27.678;2023-08-31T04:20:48;978;;;15.9;86.1
62980;BME280;49075;53.988;27.678;2023-08-31T04:25:52;978.1;;;15.9;86
62980;BME280;49075;53.988;27.678;2023-08-31T04:30:42;978.1;;;15.9;85.9
62980;BME280;49075;53.988;27.678;2023-08-31T04:35:32;978.2;;;15.8;85.7
62980;BME280;49075;53.988;27.678;2023-08-31T04:40:32;978.2;;;15.8;85.7
62980;BME280;49075;53.988;27.678;2023-08-31T04:45:32;978.2;;;15.8;85.4
62980;BME280;49075;53.988;27.678;2023-08-31T04:50:32;978.2;;;16;84.8
62980;BME280;49075;53.988;27.678;2023-08-31T04:55:58;978.1;;;15.9;84.7
62980;BME280;49075;53.988;27.678;2023-08-31T05:00:32;978;;;16.1;84.2
62980;BME280;49075;53.988;27.678;2023-08-31T05:05:32;978.1;;;16.1;83.8
62980;BME280;49075;53.988;27.678;2023-08-31T05:10:42;978.2;;;16.3;83.7
62980;BME280;49075;53.988;27.678;2023-08-31T05:15:52;978.2;;;16.4;83.2
62980;BME280;49075;53.988;27.678;2023-08-31T05:25:32;978.2;;;16.7;81.8
62980;BME280;49075;53.988;27.678;2023-08-31T05:30:32;978.3;;;16.7;82
62980;BME280;49075;53.988;27.678;2023-08-31T05:35:50;978.2;;;16.9;81.2
62980;BME280;49075;53.988;27.678;2023-08-31T05:40:48;978.2;;;17.1;81.1
62980;BME280;49075;53.988;27.678;2023-08-31T05:45:52;978.3;;;17.2;80.3
62980;BME280;49075;53.988;27.678;2023-08-31T05:50:56;978.3;;;17.1;80.4
62980;BME280;49075;53.988;27.678;2023-08-31T05:55:32;978.4;;;17;80.3
62980;BME280;49075;53.988;27.678;2023-08-31T06:00:42;978.5;;;16.8;81
62980;BME280;49075;53.988;27.678;2023-08-31T06:05:52;978.5;;;16.8;80.7
62980;BME280;49075;53.988;27.678;2023-08-31T06:10:32;978.6;;;17;80.5
62980;BME280;49075;53.988;27.678;2023-08-31T06:15:42;978.6;;;17.2;79.8
62980;BME280;49075;53.988;27.678;2023-08-31T06:20:32;978.6;;;17.4;79
62980;BME280;49075;53.988;27.678;2023-08-31T06:26:04;978.7;;;17.5;78.4
62980;BME280;49075;53.988;27.678;2023-08-31T06:31:00;978.7;;;17.6;77.9
62980;BME280;49075;53.988;27.678;2023-08-31T06:35:32;978.6;;;17.8;77.7
62980;BME280;49075;53.988;27.678;2023-08-31T06:40:56;978.6;;;18.9;73.7
62980;BME280;49075;53.988;27.678;2023-08-31T06:45:44;978.6;;;19.4;73.1
62980;BME280;49075;53.988;27.678;2023-08-31T06:50:42;978.6;;;19.3;72.5
62980;BME280;49075;53.988;27.678;2023-08-31T06:55:42;978.6;;;19.6;72.1
62980;BME280;49075;53.988;27.678;2023-08-31T07:00:32;978.6;;;20.5;68.5
62980;BME280;49075;53.988;27.678;2023-08-31T07:05:42;978.6;;;21.9;66.7
62980;BME280;49075;53.988;27.678;2023-08-31T07:10:32;978.5;;;23.1;62.6
62980;BME280;49075;53.988;27.678;2023-08-31T07:15:52;978.5;;;23.5;61.7
62980;BME280;49075;53.988;27.678;2023-08-31T07:20:48;978.6;;;23.5;59.9
62980;BME280;49075;53.988;27.678;2023-08-31T07:25:32;978.7;;;23.7;60.1
62980;BME280;49075;53.988;27.678;2023-08-31T07:30:32;978.7;;;24.2;57
62980;BME280;49075;53.988;27.678;2023-08-31T07:35:46;978.8;;;23.8;58.9
62980;BME280;49075;53.988;27.678;2023-08-31T07:40:32;978.8;;;23.7;58
62980;BME280;49075;53.988;27.678;2023-08-31T07:45:32;978.8;;;23.3;57.8
62980;BME280;49075;53.988;27.678;2023-08-31T07:50:42;978.7;;;23.5;57
62980;BME280;49075;53.988;27.678;2023-08-31T07:55:38;978.8;;;23.3;57.4
62980;BME280;49075;53.988;27.678;2023-08-31T08:00:32;978.8;;;23.1;56.4
62980;BME280;49075;53.988;27.678;2023-08-31T08:05:52;978.9;;;22.7;57.7
62980;BME280;49075;53.988;27.678;2023-08-31T08:10:32;978.8;;;22.4;57.8
62980;BME280;49075;53.988;27.678;2023-08-31T08:15:56;978.9;;;23.1;56.9
62980;BME280;49075;53.988;27.678;2023-08-31T08:20:47;979;;;22;57.7
62980;BME280;49075;53.988;27.678;2023-08-31T08:25:56;979;;;21.9;58.4
62980;BME280;49075;53.988;27.678;2023-08-31T08:31:00;978.9;;;21.6;58.7
62980;BME280;49075;53.988;27.678;2023-08-31T08:35:42;978.9;;;21.2;60
62980;BME280;49075;53.988;27.678;2023-08-31T08:40:46;978.9;;;20.7;61
62980;BME280;49075;53.988;27.678;2023-08-31T08:45:38;978.9;;;20.7;61.2
62980;BME280;49075;53.988;27.678;2023-08-31T08:50:42;978.9;;;20.2;62.5
62980;BME280;49075;53.988;27.678;2023-08-31T08:55:52;978.9;;;19.8;63.6
62980;BME280;49075;53.988;27.678;2023-08-31T09:00:38;978.8;;;19.6;64.6
62980;BME280;49075;53.988;27.678;2023-08-31T09:05:58;978.8;;;20.1;63.7
62980;BME280;49075;53.988;27.678;2023-08-31T09:10:46;978.8;;;20.4;63.2
62980;BME280;49075;53.988;27.678;2023-08-31T09:15:58;978.8;;;21.2;61.6
62980;BME280;49075;53.988;27.678;2023-08-31T09:20:35;978.8;;;21.6;60.3
62980;BME280;49075;53.988;27.678;2023-08-31T09:25:32;978.9;;;20.9;61.6
62980;BME280;49075;53.988;27.678;2023-08-31T09:30:42;978.8;;;20.6;61.4
62980;BME280;49075;53.988;27.678;2023-08-31T09:35:32;978.9;;;20.3;62.1
62980;BME280;49075;53.988;27.678;2023-08-31T09:40:42;978.8;;;20.1;62.9
62980;BME280;49075;53.988;27.678;2023-08-31T09:45:38;978.8;;;20.3;63
62980;BME280;49075;53.988;27.678;2023-08-31T09:51:16;978.8;;;20.2;63.5
62980;BME280;49075;53.988;27.678;2023-08-31T09:55:44;978.9;;;20.1;63.2
62980;BME280;49075;53.988;27.678;2023-08-31T10:00:46;978.9;;;20;63.4
62980;BME280;49075;53.988;27.678;2023-08-31T10:05:56;978.9;;;20.2;63.5
62980;BME280;49075;53.988;27.678;2023-08-31T10:10:42;978.9;;;20;64.2
62980;BME280;49075;53.988;27.678;2023-08-31T10:15:54;978.9;;;19.7;64.5
62980;BME280;49075;53.988;27.678;2023-08-31T10:20:52;978.9;;;19.6;64.8
62980;BME280;49075;53.988;27.678;2023-08-31T10:26:22;979;;;19.6;65.2
62980;BME280;49075;53.988;27.678;2023-08-31T10:30:59;979;;;19.5;65.4
62980;BME280;49075;53.988;27.678;2023-08-31T10:35:40;979;;;20;64.2
62980;BME280;49075;53.988;27.678;2023-08-31T10:40:38;979;;;20.4;63.5
62980;BME280;49075;53.988;27.678;2023-08-31T10:45:39;979;;;20;63.9
62980;BME280;49075;53.988;27.678;2023-08-31T10:51:04;979;;;20.2;63.8
62980;BME280;49075;53.988;27.678;2023-08-31T10:56:00;978.9;;;21.7;59.8
62980;BME280;49075;53.988;27.678;2023-08-31T11:00:46;978.8;;;22.7;57.3
62980;BME280;49075;53.988;27.678;2023-08-31T11:05:32;978.9;;;22.8;56.1
62980;BME280;49075;53.988;27.678;2023-08-31T11:10:32;978.9;;;22.6;56.6
62980;BME280;49075;53.988;27.678;2023-08-31T11:15:32;978.8;;;22.1;57.3
62980;BME280;49075;53.988;27.678;2023-08-31T11:20:38;978.8;;;21.6;59
62980;BME280;49075;53.988;27.678;2023-08-31T11:25:47;978.9;;;20.9;60.7
62980;BME280;49075;53.988;27.678;2023-08-31T11:30:38;979;;;21;60.6
62980;BME280;49075;53.988;27.678;2023-08-31T11:35:32;979.1;;;21.2;59.6
62980;BME280;49075;53.988;27.678;2023-08-31T11:40:55;979.1;;;21.2;59.7
62980;BME280;49075;53.988;27.678;2023-08-31T11:45:42;979.1;;;21.2;59.6
62980;BME280;49075;53.988;27.678;2023-08-31T11:51:08;979.2;;;20.9;60.6
62980;BME280;49075;53.988;27.678;2023-08-31T11:55:49;979.2;;;20.8;60.7
62980;BME280;49075;53.988;27.678;2023-08-31T12:00:32;979.3;;;20.8;58.9
62980;BME280;49075;53.988;27.678;2023-08-31T12:05:44;979.4;;;20.7;58.8
62980;BME280;49075;53.988;27.678;2023-08-31T12:10:42;979.4;;;20.5;59.4
62980;BME280;49075;53.988;27.678;2023-08-31T12:15:52;979.4;;;20.4;59.2
62980;BME280;49075;53.988;27.678;2023-08-31T12:20:46;979.4;;;20.3;59.4
62980;BME280;49075;53.988;27.678;2023-08-31T12:25:48;979.4;;;20.3;59.4
62980;BME280;49075;53.988;27.678;2023-08-31T12:30:53;979.5;;;20.1;59.8
62980;BME280;49075;53.988;27.678;2023-08-31T12:35:42;979.5;;;20.1;60
62980;BME280;49075;53.988;27.678;2023-08-31T12:40:42;979.5;;;20;60.3
62980;BME280;49075;53.988;27.678;2023-08-31T12:45:32;979.6;;;19.9;60.9
62980;BME280;49075;53.988;27.678;2023-08-31T12:50:52;979.6;;;20.4;59.8
62980;BME280;49075;53.988;27.678;2023-08-31T12:55:38;979.6;;;20.6;59.1
62980;BME280;49075;53.988;27.678;2023-08-31T13:00:38;979.6;;;20.6;58.3
62980;BME280;49075;53.988;27.678;2023-08-31T13:05:52;979.4;;;20.8;57.7
62980;BME280;49075;53.988;27.678;2023-08-31T13:10:38;979.4;;;20.7;56.4
62980;BME280;49075;53.988;27.678;2023-08-31T13:15:46;979.4;;;20.8;56.4
62980;BME280;49075;53.988;27.678;2023-08-31T13:20:50;979.3;;;21.1;56.3
62980;BME280;49075;53.988;27.678;2023-08-31T13:25:32;979.3;;;21.2;55.8
62980;BME280;49075;53.988;27.678;2023-08-31T13:30:32;979.3;;;21.4;55.4
62980;BME280;49075;53.988;27.678;2023-08-31T13:35:42;979.5;;;21.1;56
62980;BME280;49075;53.988;27.678;2023-08-31T13:40:42;979.6;;;20.8;57.1
62980;BME280;49075;53.988;27.678;2023-08-31T13:45:48;979.7;;;20.3;58.4
62980;BME280;49075;53.988;27.678;2023-08-31T13:50:42;979.7;;;20;59.3
62980;BME280;49075;53.988;27.678;2023-08-31T13:55:32;979.6;;;19.8;59.7
62980;BME280;49075;53.988;27.678;2023-08-31T14:01:05;979.6;;;19.6;60.4
62980;BME280;49075;53.988;27.678;2023-08-31T14:05:47;979.6;;;19.8;60.2
62980;BME280;49075;53.988;27.678;2023-08-31T14:10:32;979.6;;;19.6;60.9
62980;BME280;49075;53.988;27.678;2023-08-31T14:15:32;979.6;;;19.4;61.6
62980;BME280;49075;53.988;27.678;2023-08-31T14:21:14;979.7;;;19.5;62
62980;BME280;49075;53.988;27.678;2023-08-31T14:25:42;979.8;;;19.2;64.6
62980;BME280;49075;53.988;27.678;2023-08-31T14:30:52;979.8;;;18.6;67.6
62980;BME280;49075;53.988;27.678;2023-08-31T14:35:35;979.7;;;18.4;67.4
62980;BME280;49075;53.988;27.678;2023-08-31T14:40:48;979.7;;;18.3;67.7
62980;BME280;49075;53.988;27.678;2023-08-31T14:45:52;979.8;;;18.2;67.7
62980;BME280;49075;53.988;27.678;2023-08-31T14:50:32;979.9;;;17.8;69.7
62980;BME280;49075;53.988;27.678;2023-08-31T14:55:47;979.9;;;17.9;70.3
62980;BME280;49075;53.988;27.678;2023-08-31T15:01:04;979.9;;;18;70.2
62980;BME280;49075;53.988;27.678;2023-08-31T15:05:32;979.8;;;18.2;70
62980;BME280;49075;53.988;27.678;2023-08-31T15:10:46;979.8;;;18.3;69.1
62980;BME280;49075;53.988;27.678;2023-08-31T15:15:38;979.9;;;18.5;68.6
62980;BME280;49075;53.988;27.678;2023-08-31T15:21:08;979.9;;;18.5;68.2
62980;BME280;49075;53.988;27.678;2023-08-31T15:25:42;979.9;;;18.7;67.9
62980;BME280;49075;53.988;27.678;2023-08-31T15:30:38;979.9;;;18.8;68
62980;BME280;49075;53.988;27.678;2023-08-31T15:35:38;979.9;;;18.8;68.2
62980;BME280;49075;53.988;27.678;2023-08-31T15:40:32;980;;;18.8;68.3
62980;BME280;49075;53.988;27.678;2023-08-31T15:46:04;980.1;;;18.7;68.8
62980;BME280;49075;53.988;27.678;2023-08-31T15:50:46;980.2;;;18.7;68.9
62980;BME280;49075;53.988;27.678;2023-08-31T15:56:08;980.2;;;18.8;69
62980;BME280;49075;53.988;27.678;2023-08-31T16:01:00;980.2;;;18.7;69.2
62980;BME280;49075;53.988;27.678;2023-08-31T16:05:32;980.3;;;18.7;69.9
62980;BME280;49075;53.988;27.678;2023-08-31T16:10:42;980.3;;;18.7;69.9
62980;BME280;49075;53.988;27.678;2023-08-31T16:15:44;980.3;;;18.7;70.1
62980;BME280;49075;53.988;27.678;2023-08-31T16:20:48;980.2;;;18.6;70.6
62980;BME280;49075;53.988;27.678;2023-08-31T16:25:52;980.3;;;18.6;70.2
62980;BME280;49075;53.988;27.678;2023-08-31T16:30:52;980.3;;;18.7;68.7
62980;BME280;49075;53.988;27.678;2023-08-31T16:35:32;980.4;;;18.7;67.8
62980;BME280;49075;53.988;27.678;2023-08-31T16:40:58;980.4;;;18.8;66.9
62980;BME280;49075;53.988;27.678;2023-08-31T16:46:08;980.4;;;18.7;66.4
62980;BME280;49075;53.988;27.678;2023-08-31T16:50:42;980.5;;;18.7;66.2
62980;BME280;49075;53.988;27.678;2023-08-31T16:55:38;980.5;;;18.5;66
62980;BME280;49075;53.988;27.678;2023-08-31T17:00:32;980.6;;;18.4;66.1
62980;BME280;49075;53.988;27.678;2023-08-31T17:05:56;980.7;;;18.3;66.1
62980;BME280;49075;53.988;27.678;2023-08-31T17:10:38;980.7;;;18.3;66.2
62980;BME280;49075;53.988;27.678;2023-08-31T17:15:50;980.8;;;18.2;66.3
62980;BME280;49075;53.988;27.678;2023-08-31T17:20:32;980.9;;;18.1;66.4
62980;BME280;49075;53.988;27.678;2023-08-31T17:25:54;981;;;18;66.6
62980;BME280;49075;53.988;27.678;2023-08-31T17:30:52;981.1;;;17.9;66.7
62980;BME280;49075;53.988;27.678;2023-08-31T17:35:52;981.2;;;17.9;66.9
62980;BME280;49075;53.988;27.678;2023-08-31T17:40:32;981.2;;;17.9;66.9
62980;BME280;49075;53.988;27.678;2023-08-31T17:45:42;981.3;;;17.9;67.1
62980;BME280;49075;53.988;27.678;2023-08-31T17:50:42;981.3;;;17.9;67.2
62980;BME280;49075;53.988;27.678;2023-08-31T17:55:42;981.3;;;17.9;67.2
62980;BME280;49075;53.988;27.678;2023-08-31T18:00:48;981.4;;;18;67.5
62980;BME280;49075;53.988;27.678;2023-08-31T18:05:52;981.4;;;18.1;67.3
62980;BME280;49075;53.988;27.678;2023-08-31T18:10:32;981.4;;;18.2;67.4
62980;BME280;49075;53.988;27.678;2023-08-31T18:15:46;981.4;;;18.1;67.3
62980;BME280;49075;53.988;27.678;2023-08-31T18:20:38;981.4;;;18;67.5
62980;BME280;49075;53.988;27.678;2023-08-31T18:25:32;981.5;;;17.9;67.5
62980;BME280;49075;53.988;27.678;2023-08-31T18:30:32;981.5;;;17.8;67.9
62980;BME280;49075;53.988;27.678;2023-08-31T18:35:47;981.5;;;17.7;67.8
62980;BME280;49075;53.988;27.678;2023-08-31T18:40:34;981.6;;;17.5;68.2
62980;BME280;49075;53.988;27.678;2023-08-31T18:46:00;981.6;;;17.4;68.2
62980;BME280;49075;53.988;27.678;2023-08-31T18:50:38;981.6;;;17.2;68.9
62980;BME280;49075;53.988;27.678;2023-08-31T18:55:38;981.7;;;17.1;68.8
62980;BME280;49075;53.988;27.678;2023-08-31T19:00:52;981.7;;;17.1;69.1
62980;BME280;49075;53.988;27.678;2023-08-31T19:05:47;981.8;;;17;69.1
62980;BME280;49075;53.988;27.678;2023-08-31T19:10:42;981.8;;;16.9;69
62980;BME280;49075;53.988;27.678;2023-08-31T19:16:00;981.9;;;16.9;69
62980;BME280;49075;53.988;27.678;2023-08-31T19:20:59;982;;;16.8;69.4
62980;BME280;49075;53.988;27.678;2023-08-31T19:25:32;982;;;16.7;69.4
62980;BME280;49075;53.988;27.678;2023-08-31T19:30:32;981.9;;;16.7;69
62980;BME280;49075;53.988;27.678;2023-08-31T19:35:32;981.9;;;16.7;69.1
62980;BME280;49075;53.988;27.678;2023-08-31T19:40:38;981.9;;;16.6;69.1
62980;BME280;49075;53.988;27.678;2023-08-31T19:45:32;982;;;16.6;69.5
62980;BME280;49075;53.988;27.678;2023-08-31T19:50:32;982;;;16.5;69.6
62980;BME280;49075;53.988;27.678;2023-08-31T19:55:56;982;;;16.4;69.8
62980;BME280;49075;53.988;27.678;2023-08-31T20:00:46;982.1;;;16.3;70.1
62980;BME280;49075;53.988;27.678;2023-08-31T20:05:32;982.2;;;16.3;70.3
62980;BME280;49075;53.988;27.678;2023-08-31T20:10:42;982.2;;;16.2;70.4
62980;BME280;49075;53.988;27.678;2023-08-31T20:15:42;982.2;;;16.2;70.7
62980;BME280;49075;53.988;27.678;2023-08-31T20:20:32;982.2;;;16.1;70.9
62980;BME280;49075;53.988;27.678;2023-08-31T20:25:38;982.2;;;16.1;70.9
62980;BME280;49075;53.988;27.678;2023-08-31T20:30:48;982.3;;;15.9;71.7
62980;BME280;49075;53.988;27.678;2023-08-31T20:35:50;982.3;;;15.8;71.9
62980;BME280;49075;53.988;27.678;2023-08-31T20:40:36;982.3;;;15.7;72.5
62980;BME280;49075;53.988;27.678;2023-08-31T20:45:32;982.4;;;15.7;72.4
62980;BME280;49075;53.988;27.678;2023-08-31T20:51:00;982.3;;;15.6;73.2
62980;BME280;49075;53.988;27.678;2023-08-31T20:55:42;982.4;;;15.6;73
62980;BME280;49075;53.988;27.678;2023-08-31T21:00:42;982.4;;;15.5;73.5
62980;BME280;49075;53.988;27.678;2023-08-31T21:05:32;982.4;;;15.4;73.5
62980;BME280;49075;53.988;27.678;2023-08-31T21:10:32;982.5;;;15.4;74.1
62980;BME280;49075;53.988;27.678;2023-08-31T21:15:32;982.5;;;15.3;74
62980;BME280;49075;53.988;27.678;2023-08-31T21:20:48;982.5;;;15.4;74.1
62980;BME280;49075;53.988;27.678;2023-08-31T21:26:01;982.6;;;15.4;73.8
62980;BME280;49075;53.988;27.678;2023-08-31T21:30:52;982.7;;;15.4;74.3
62980;BME280;49075;53.988;27.678;2023-08-31T21:35:33;982.7;;;15.3;74.3
62980;BME280;49075;53.988;27.678;2023-08-31T21:41:02;982.7;;;15.2;74.9
62980;BME280;49075;53.988;27.678;2023-08-31T21:46:00;982.7;;;15.2;74.6
62980;BME280;49075;53.988;27.678;2023-08-31T21:50:56;982.8;;;15.2;75.2
62980;BME280;49075;53.988;27.678;2023-08-31T21:55:59;982.9;;;15.1;75.1
62980;BME280;49075;53.988;27.678;2023-08-31T22:00:42;982.9;;;15;75.8
62980;BME280;49075;53.988;27.678;2023-08-31T22:05:32;983;;;15;75.6
62980;BME280;49075;53.988;27.678;2023-08-31T22:10:48;982.9;;;14.9;76.3
62980;BME280;49075;53.988;27.678;2023-08-31T22:15:42;982.8;;;14.9;75.9
62980;BME280;49075;53.988;27.678;2023-08-31T22:20:32;982.9;;;14.9;76
62980;BME280;49075;53.988;27.678;2023-08-31T22:26:08;982.9;;;14.8;76.1
62980;BME280;49075;53.988;27.678;2023-08-31T22:30:32;982.9;;;14.8;76.3
62980;BME280;49075;53.988;27.678;2023-08-31T22:35:42;982.9;;;14.8;76.2
62980;BME280;49075;53.988;27.678;2023-08-31T22:40:32;982.9;;;14.7;76.8
62980;BME280;49075;53.988;27.678;2023-08-31T22:45:32;982.9;;;14.7;76.6
62980;BME280;49075;53.988;27.678;2023-08-31T22:50:42;982.9;;;14.7;76.8
62980;BME280;49075;53.988;27.678;2023-08-31T22:55:38;983;;;14.6;76.8
62980;BME280;49075;53.988;27.678;2023-08-31T23:00:48;983;;;14.6;76.9
62980;BME280;49075;53.988;27.678;2023-08-31T23:05:46;983;;;14.6;76.9
62980;BME280;49075;53.988;27.678;2023-08-31T23:10:44;983;;;14.6;76.8
62980;BME280;49075;53.988;27.678;2023-08-31T23:15:32;983;;;14.6;76.9
62980;BME280;49075;53.988;27.678;2023-08-31T23:20:44;983;;;14.6;76.9
62980;BME280;49075;53.988;27.678;2023-08-31T23:25:44;983;;;14.6;77
62980;BME280;49075;53.988;27.678;2023-08-31T23:30:32;983.1;;;14.6;77
62980;BME280;49075;53.988;27.678;2023-08-31T23:35:32;983.1;;;14.5;77
62980;BME280;49075;53.988;27.678;2023-08-31T23:40:42;983.1;;;14.5;77.2
62980;BME280;49075;53.988;27.678;2023-08-31T23:45:38;983.2;;;14.5;77.1
62980;BME280;49075;53.988;27.678;2023-08-31T23:50:32;983.1;;;14.5;77.3
62980;BME280;49075;53.988;27.678;2023-08-31T23:55:37;983.1;;;14.4;77.3
